Time;durP1;ratioP1;P1;durP2;ratioP2;P2;SDS_P1;SDS_P2;PMS_P1;PMS_P2;Temp;Humidity;BMP_temperature;BMP_pressure;BME280_temperature;BME280_humidity;BME280_pressure;Samples;Min_cycle;Max_cycle;Signal;HPM_P1;HPM_P2
2023/12/04 00:01:47;;;;;;;8.70;5.27;;;;;;;20.82;46.72;97819.34;4943259;29;20221;-25
2023/12/04 00:04:14;;;;;;;7.13;5.23;;;;;;;20.82;46.47;97821.88;4949223;29;20671;-26
2023/12/04 00:18:02;;;;;;;7.43;5.33;;;;;;;20.82;46.47;97800.56;4936831;28;20195;-24
2023/12/04 00:20:29;;;;;;;7.73;4.87;;;;;;;20.82;46.48;97795.47;4944245;29;20239;-25
2023/12/04 00:22:55;;;;;;;6.90;5.10;;;;;;;20.72;46.45;97780.63;4938983;29;20657;-25
2023/12/04 00:25:22;;;;;;;7.70;5.20;;;;;;;20.82;46.52;97798.00;4944945;29;20216;-25
2023/12/04 00:27:48;;;;;;;6.60;5.00;;;;;;;20.82;46.57;97792.91;4950389;29;20227;-25
2023/12/04 00:30:15;;;;;;;7.47;5.43;;;;;;;20.81;46.46;97781.81;4943332;29;20604;-26
2023/12/04 00:32:42;;;;;;;9.30;5.43;;;;;;;20.82;46.43;97778.47;4943688;29;20227;-25
2023/12/04 00:35:08;;;;;;;7.47;5.33;;;;;;;20.83;46.50;97776.75;4950864;29;20291;-25
2023/12/04 00:37:38;;;;;;;7.63;5.20;;;;;;;20.73;46.32;97762.81;4944122;29;20868;-26
2023/12/04 00:40:05;;;;;;;5.77;4.53;;;;;;;20.82;46.41;97782.69;4938705;29;20291;-25
2023/12/04 00:42:32;;;;;;;7.80;5.10;;;;;;;20.83;46.46;97781.88;4952703;29;20239;-26
2023/12/04 00:44:59;;;;;;;7.43;4.97;;;;;;;20.82;46.44;97775.91;4942171;29;20205;-25
2023/12/04 00:47:25;;;;;;;7.03;4.87;;;;;;;20.82;46.57;97775.91;4949541;29;20205;-25
2023/12/04 00:49:52;;;;;;;5.20;4.63;;;;;;;20.83;46.38;97776.75;4949381;29;20205;-25
2023/12/04 00:52:18;;;;;;;8.17;5.33;;;;;;;20.80;46.45;97771.53;4941165;29;20216;-25
2023/12/04 00:54:45;;;;;;;7.37;4.80;;;;;;;20.83;46.45;97766.53;4938334;29;20455;-25
2023/12/04 00:57:12;;;;;;;8.63;5.47;;;;;;;20.82;46.44;97755.47;4950853;28;20208;-25
2023/12/04 00:59:38;;;;;;;6.13;5.00;;;;;;;20.83;46.53;97771.66;4949631;29;20196;-26
2023/12/04 01:02:06;;;;;;;6.03;4.90;;;;;;;20.82;46.32;97764.81;4940307;29;20228;-25
2023/12/04 01:04:33;;;;;;;5.77;5.03;;;;;;;20.83;46.44;97766.53;4945548;29;20201;-24
2023/12/04 01:07:01;;;;;;;7.87;5.60;;;;;;;20.82;46.44;97764.81;4937832;29;20232;-25
2023/12/04 01:09:27;;;;;;;6.43;5.00;;;;;;;20.82;46.64;97760.59;4946742;29;20208;-26
2023/12/04 01:11:54;;;;;;;5.33;4.50;;;;;;;20.82;46.44;97760.59;4948367;29;20295;-25
2023/12/04 01:14:21;;;;;;;6.20;4.87;;;;;;;20.82;46.47;97752.91;4945336;28;20401;-25
2023/12/04 01:16:47;;;;;;;6.93;5.10;;;;;;;20.83;46.51;97748.66;4953626;29;20200;-25
2023/12/04 01:19:14;;;;;;;5.63;4.90;;;;;;;20.83;46.54;97739.31;4945885;29;20294;-25
2023/12/04 01:21:41;;;;;;;6.60;4.80;;;;;;;20.84;46.50;97733.38;4950594;29;20224;-25
2023/12/04 01:24:08;;;;;;;6.70;4.90;;;;;;;20.84;46.34;97727.44;4929455;29;20215;-25
2023/12/04 01:26:34;;;;;;;5.63;4.73;;;;;;;20.83;46.44;97726.53;4944189;29;20204;-25
2023/12/04 01:29:01;;;;;;;6.47;4.97;;;;;;;20.83;46.39;97724.00;4947411;29;20204;-26
2023/12/04 01:31:28;;;;;;;5.70;5.10;;;;;;;20.83;46.24;97724.00;4947172;29;20207;-25
2023/12/04 01:33:54;;;;;;;9.10;5.33;;;;;;;20.83;46.63;97724.00;4945210;29;20224;-25
2023/12/04 01:36:21;;;;;;;7.53;4.60;;;;;;;20.84;46.37;97717.22;4944238;29;20306;-25
2023/12/04 01:38:48;;;;;;;6.20;5.27;;;;;;;20.83;46.35;97721.44;4948986;29;20755;-25
2023/12/04 01:41:14;;;;;;;7.83;5.13;;;;;;;20.84;46.45;97712.94;4938256;29;20235;-25
2023/12/04 01:43:41;;;;;;;7.47;5.07;;;;;;;20.83;46.45;97713.78;4945298;29;20209;-25
2023/12/04 01:46:07;;;;;;;6.40;5.13;;;;;;;20.84;46.42;97707.00;4951610;29;20204;-27
2023/12/04 01:48:34;;;;;;;7.23;5.40;;;;;;;20.84;46.38;97704.44;4934874;29;20204;-25
2023/12/04 01:51:02;;;;;;;5.70;4.90;;;;;;;20.84;46.26;97704.44;4946445;29;20291;-25
2023/12/04 01:53:29;;;;;;;6.57;5.10;;;;;;;20.84;46.50;97702.72;4927875;29;20641;-25
2023/12/04 01:55:55;;;;;;;5.90;5.30;;;;;;;20.83;46.28;97688.22;4945434;29;20204;-25
2023/12/04 01:58:22;;;;;;;5.60;4.47;;;;;;;20.84;46.34;97692.50;4906177;29;20240;-25
2023/12/04 02:00:48;;;;;;;6.20;4.70;;;;;;;20.84;46.28;97694.22;4943226;29;20280;-25
2023/12/04 02:03:15;;;;;;;6.60;5.23;;;;;;;20.84;46.37;97687.41;4947257;29;20279;-26
2023/12/04 02:05:44;;;;;;;6.57;5.37;;;;;;;20.83;46.43;97678.00;4928794;29;20859;-24
2023/12/04 02:08:10;;;;;;;7.97;4.93;;;;;;;20.83;46.30;97678.00;4943673;29;20992;-25
2023/12/04 02:10:38;;;;;;;7.50;5.47;;;;;;;20.83;46.43;97678.00;4914691;29;20264;-25
2023/12/04 02:13:05;;;;;;;6.37;4.80;;;;;;;20.82;46.12;97667.75;4945270;29;20281;-25
2023/12/04 02:15:33;;;;;;;6.70;4.97;;;;;;;20.83;46.31;97664.38;4945846;29;20208;-25
2023/12/04 02:18:00;;;;;;;5.13;4.63;;;;;;;20.72;46.35;97643.56;4942981;29;20593;-25
2023/12/04 02:20:33;;;;;;;5.30;4.80;;;;;;;20.75;46.52;97647.94;4917427;29;20694;-26
2023/12/04 02:23:01;;;;;;;6.07;4.87;;;;;;;20.83;46.34;97670.34;4941681;29;20315;-25
2023/12/04 02:25:28;;;;;;;5.23;4.53;;;;;;;20.83;46.47;97661.81;4946317;29;20590;-26
2023/12/04 02:28:05;;;;;;;5.10;4.60;;;;;;;20.80;46.14;97649.81;4916652;29;20219;-24
2023/12/04 02:30:34;;;;;;;4.73;4.20;;;;;;;20.84;46.34;97661.84;4943174;29;20215;-24
2023/12/04 02:33:04;;;;;;;6.87;4.60;;;;;;;20.83;46.41;97657.56;4943207;29;20275;-25
2023/12/04 02:35:32;;;;;;;5.33;4.43;;;;;;;20.84;46.17;97654.19;4925429;29;20672;-25
2023/12/04 02:38:00;;;;;;;6.37;5.10;;;;;;;20.84;46.07;97649.09;4930233;29;20267;-25
2023/12/04 02:40:27;;;;;;;4.40;4.00;;;;;;;20.85;46.24;97643.19;4929201;29;20205;-25
2023/12/04 02:42:53;;;;;;;6.50;4.80;;;;;;;20.84;46.08;97641.41;4905578;29;20707;-24
2023/12/04 02:45:20;;;;;;;5.67;4.63;;;;;;;20.84;46.29;97636.31;4922463;29;20221;-25
2023/12/04 02:47:47;;;;;;;5.87;5.07;;;;;;;20.84;46.35;97641.41;4933624;29;20588;-24
2023/12/04 02:50:13;;;;;;;5.40;4.40;;;;;;;20.84;46.18;97643.97;4941052;29;20256;-25
2023/12/04 02:52:40;;;;;;;6.10;4.90;;;;;;;20.85;46.20;97649.97;4937720;29;20291;-25
2023/12/04 02:55:07;;;;;;;5.10;4.13;;;;;;;20.84;46.25;97643.97;4943552;29;20291;-25
2023/12/04 02:57:34;;;;;;;5.50;4.63;;;;;;;20.85;46.27;97635.53;4937937;29;20212;-26
2023/12/04 03:00:00;;;;;;;5.43;4.70;;;;;;;20.85;46.28;97626.97;4947868;29;20256;-26
2023/12/04 03:02:27;;;;;;;4.80;4.30;;;;;;;20.85;46.09;97630.41;4944869;29;20717;-25
2023/12/04 03:04:53;;;;;;;4.83;4.30;;;;;;;20.85;46.19;97626.97;4946019;29;20196;-25
2023/12/04 03:07:21;;;;;;;4.80;4.30;;;;;;;20.85;46.32;97620.19;4944463;29;20291;-25
2023/12/04 03:09:47;;;;;;;5.10;4.60;;;;;;;20.85;46.16;97622.75;4944083;29;20203;-25
2023/12/04 03:12:16;;;;;;;5.47;4.90;;;;;;;20.85;46.09;97627.84;4938740;29;20221;-25
2023/12/04 03:14:43;;;;;;;4.93;4.47;;;;;;;20.84;46.24;97621.00;4947337;29;20255;-25
2023/12/04 03:17:09;;;;;;;4.80;4.30;;;;;;;20.85;45.91;97615.09;4944124;29;20236;-25
2023/12/04 03:19:36;;;;;;;5.33;4.83;;;;;;;20.85;46.36;97615.09;4941143;29;20201;-25
2023/12/04 03:22:03;;;;;;;5.10;4.60;;;;;;;20.84;46.20;97610.78;4946390;29;20232;-26
2023/12/04 03:24:29;;;;;;;5.17;4.60;;;;;;;20.83;46.22;97619.25;4937722;29;20232;-25
2023/12/04 03:26:56;;;;;;;5.23;4.23;;;;;;;20.83;46.30;97606.50;4942003;29;20204;-24
2023/12/04 03:29:23;;;;;;;4.77;4.27;;;;;;;20.83;46.17;97601.38;4940185;29;20272;-25
2023/12/04 03:31:50;;;;;;;4.80;4.30;;;;;;;20.85;46.23;97593.78;4948066;29;20220;-25
2023/12/04 03:34:16;;;;;;;5.23;4.73;;;;;;;20.85;46.32;97592.09;4954058;29;20239;-26
2023/12/04 03:36:43;;;;;;;5.00;4.50;;;;;;;20.84;46.17;97592.03;4945286;29;20567;-25
2023/12/04 03:39:09;;;;;;;4.67;4.23;;;;;;;20.84;46.04;97595.44;4937041;29;20201;-25
2023/12/04 03:41:36;;;;;;;5.10;4.40;;;;;;;20.83;46.12;97591.16;4946098;29;20303;-26
2023/12/04 03:44:02;;;;;;;4.83;4.33;;;;;;;20.83;46.28;97588.59;4949052;29;20252;-25
2023/12/04 03:46:29;;;;;;;5.20;4.63;;;;;;;20.84;46.02;97590.34;4940718;29;20196;-26
2023/12/04 03:48:56;;;;;;;5.70;4.23;;;;;;;20.85;46.06;97591.22;4948619;29;20215;-24
2023/12/04 03:51:22;;;;;;;4.47;4.07;;;;;;;20.85;46.31;97573.34;4942895;29;20299;-25
2023/12/04 03:53:49;;;;;;;4.63;4.23;;;;;;;20.85;46.17;97566.56;4948290;29;20259;-25
2023/12/04 03:56:15;;;;;;;4.87;4.33;;;;;;;20.84;46.07;97569.06;4943724;29;20201;-25
2023/12/04 03:58:42;;;;;;;4.50;4.10;;;;;;;20.84;46.05;97558.84;4946381;29;20267;-23
2023/12/04 04:01:08;;;;;;;4.63;4.23;;;;;;;20.84;45.87;97548.63;4926313;29;20261;-25
2023/12/04 04:03:35;;;;;;;4.47;4.03;;;;;;;20.85;46.01;97555.44;4951255;29;20224;-26
2023/12/04 04:06:02;;;;;;;4.43;4.03;;;;;;;20.80;45.93;97544.22;4948820;29;20260;-26
2023/12/04 04:08:28;;;;;;;4.70;4.30;;;;;;;20.85;45.99;97545.22;4932276;29;20204;-25
2023/12/04 04:10:55;;;;;;;6.40;3.90;;;;;;;20.85;45.84;97546.13;4946765;29;20205;-26
2023/12/04 04:13:22;;;;;;;4.37;3.97;;;;;;;20.85;45.91;97535.91;4944952;29;20231;-25
2023/12/04 04:15:48;;;;;;;4.57;4.13;;;;;;;20.85;45.84;97533.34;4943409;29;20201;-25
2023/12/04 04:18:15;;;;;;;4.17;3.77;;;;;;;20.85;45.95;97533.34;4940076;29;20260;-25
2023/12/04 04:20:42;;;;;;;4.30;3.90;;;;;;;20.85;45.78;97535.91;4946573;29;20197;-25
2023/12/04 04:23:08;;;;;;;5.00;4.10;;;;;;;20.85;45.94;97535.91;4944243;29;20651;-26
2023/12/04 04:25:35;;;;;;;4.60;4.10;;;;;;;20.86;46.07;97527.41;4949606;29;20204;-25
2023/12/04 04:28:01;;;;;;;4.37;3.97;;;;;;;20.85;45.94;97532.47;4943366;29;20205;-25
2023/12/04 04:30:28;;;;;;;5.10;4.20;;;;;;;20.86;45.81;97534.19;4944784;29;20232;-26
2023/12/04 04:32:54;;;;;;;4.40;4.00;;;;;;;20.85;45.91;97530.78;4942589;29;20216;-25
2023/12/04 04:35:21;;;;;;;5.23;4.30;;;;;;;20.85;45.89;97540.13;4946284;29;20200;-25
2023/12/04 04:37:48;;;;;;;5.30;4.20;;;;;;;20.85;45.73;97541.00;4952960;29;20200;-25
2023/12/04 04:40:17;;;;;;;4.83;4.30;;;;;;;20.84;45.93;97536.69;4951868;29;20196;-25
2023/12/04 04:42:44;;;;;;;4.67;4.20;;;;;;;20.85;45.76;97538.44;4953952;29;20224;-25
2023/12/04 04:45:10;;;;;;;5.00;4.50;;;;;;;20.85;45.64;97529.91;4948137;29;20205;-25
2023/12/04 04:47:37;;;;;;;4.83;4.27;;;;;;;20.85;45.97;97529.91;4950507;29;20207;-26
2023/12/04 04:50:04;;;;;;;4.53;4.13;;;;;;;20.83;45.68;97524.75;4939745;29;20255;-25
2023/12/04 04:52:30;;;;;;;4.30;3.90;;;;;;;20.84;45.92;97536.69;4943242;29;20308;-26
2023/12/04 04:54:58;;;;;;;4.00;3.70;;;;;;;20.74;45.74;97514.25;4943444;29;20196;-25
2023/12/04 04:57:25;;;;;;;5.33;4.00;;;;;;;20.83;46.03;97527.31;4951124;29;20240;-25
2023/12/04 04:59:51;;;;;;;4.53;4.13;;;;;;;20.84;45.91;97517.97;4952660;29;20284;-26
2023/12/04 05:02:18;;;;;;;4.07;3.67;;;;;;;20.83;46.14;97508.53;4953331;29;20220;-26
2023/12/04 05:04:44;;;;;;;4.23;3.83;;;;;;;20.84;46.01;97508.59;4941772;29;20244;-26
2023/12/04 05:07:11;;;;;;;4.40;4.00;;;;;;;20.84;45.97;97510.31;4950052;29;20268;-25
2023/12/04 05:09:38;;;;;;;4.50;3.83;;;;;;;20.83;46.10;97506.88;4944972;29;20225;-25
2023/12/04 05:12:05;;;;;;;4.10;3.70;;;;;;;20.84;45.81;97507.75;4949038;29;20231;-25
2023/12/04 05:14:31;;;;;;;4.00;3.70;;;;;;;20.84;45.83;97510.31;4932671;29;20200;-25
2023/12/04 05:16:58;;;;;;;6.23;4.40;;;;;;;20.83;45.19;97501.75;4953578;29;20283;-26
2023/12/04 05:19:24;;;;;;;4.97;4.33;;;;;;;20.83;45.33;97501.75;4942425;29;20236;-25
2023/12/04 05:21:51;;;;;;;4.30;3.90;;;;;;;20.83;45.28;97503.44;4941718;29;20256;-25
2023/12/04 05:24:18;;;;;;;4.40;4.03;;;;;;;20.82;45.28;97502.59;4943160;29;20608;-25
2023/12/04 05:26:44;;;;;;;4.63;4.10;;;;;;;20.83;45.42;97494.09;4944314;29;20722;-26
2023/12/04 05:29:11;;;;;;;4.33;3.93;;;;;;;20.84;45.34;97487.31;4944213;29;20260;-25
2023/12/04 05:31:37;;;;;;;4.33;3.93;;;;;;;20.84;45.39;97477.09;4949646;29;20224;-26
2023/12/04 05:34:04;;;;;;;7.53;4.10;;;;;;;20.85;45.24;97476.25;4942104;29;20264;-25
2023/12/04 05:36:31;;;;;;;4.40;4.00;;;;;;;20.85;45.38;97487.38;4943491;29;20212;-25
2023/12/04 05:38:57;;;;;;;5.10;4.20;;;;;;;20.85;45.54;97489.03;4935882;29;20289;-26
2023/12/04 05:41:27;;;;;;;5.50;4.03;;;;;;;20.85;45.50;97492.47;4950750;29;20251;-25
2023/12/04 05:43:53;;;;;;;4.57;3.60;;;;;;;20.86;45.55;97485.66;4938751;29;20253;-25
2023/12/04 05:46:20;;;;;;;4.90;4.13;;;;;;;20.85;45.37;97484.81;4943298;29;20220;-25
2023/12/04 05:48:47;;;;;;;5.80;5.30;;;;;;;20.84;42.83;97482.22;4941044;29;20204;-26
2023/12/04 05:51:15;;;;;;;9.23;7.43;;;;;;;20.82;38.38;97478.72;4937989;29;20224;-25
2023/12/04 05:53:41;;;;;;;8.80;7.90;;;;;;;20.79;35.91;97481.19;4945626;29;20200;-26
2023/12/04 05:56:09;;;;;;;10.37;9.37;;;;;;;20.75;34.62;97481.91;4943211;29;20268;-26
2023/12/04 05:58:35;;;;;;;11.67;9.80;;;;;;;20.70;33.25;97483.44;4945231;29;20209;-31
2023/12/04 06:01:02;;;;;;;10.63;9.63;;;;;;;20.67;31.91;97481.69;4939913;29;20209;-27
2023/12/04 06:03:29;;;;;;;11.93;10.83;;;;;;;20.64;31.46;97479.03;4946896;29;20220;-36
2023/12/04 06:05:55;;;;;;;11.77;10.60;;;;;;;20.60;30.43;97472.06;4952699;29;20287;-30
2023/12/04 06:08:25;;;;;;;12.77;11.57;;;;;;;20.58;29.75;97475.41;4951525;29;20200;-31
2023/12/04 06:10:52;;;;;;;12.50;11.20;;;;;;;20.53;29.61;97465.03;4950967;29;20259;-28
2023/12/04 06:13:19;;;;;;;12.20;11.00;;;;;;;20.50;29.10;97461.50;4945004;29;20739;-27
2023/12/04 06:15:45;;;;;;;12.67;11.43;;;;;;;20.47;29.05;97469.94;4947016;29;20601;-27
2023/12/04 06:18:12;;;;;;;12.67;11.37;;;;;;;20.43;28.67;97467.25;4943232;29;20554;-28
2023/12/04 06:20:39;;;;;;;12.00;10.80;;;;;;;20.42;29.69;97468.91;4952793;29;20208;-26
2023/12/04 06:23:06;;;;;;;12.10;10.90;;;;;;;20.41;31.02;97468.88;4943921;29;20280;-26
2023/12/04 06:25:33;;;;;;;12.93;10.90;;;;;;;20.39;31.98;97460.28;4936373;29;20200;-28
2023/12/04 06:27:59;;;;;;;11.20;10.10;;;;;;;20.39;32.26;97456.06;4948062;28;20240;-26
2023/12/04 06:30:26;;;;;;;12.07;10.47;;;;;;;20.40;32.50;97451.81;4942359;29;20287;-29
2023/12/04 06:32:53;;;;;;;11.33;10.23;;;;;;;20.42;34.64;97448.50;4939403;29;20598;-26
2023/12/04 06:35:20;;;;;;;12.40;9.73;;;;;;;20.44;35.17;97440.88;4941461;29;20217;-26
2023/12/04 06:37:50;;;;;;;9.63;8.63;;;;;;;20.43;35.86;97434.91;4941068;29;20200;-28
2023/12/04 06:40:17;;;;;;;9.13;8.23;;;;;;;20.44;36.33;97440.88;4929118;29;20264;-32
2023/12/04 06:42:44;;;;;;;10.20;9.13;;;;;;;20.45;36.80;97440.06;4944925;29;20726;-26
2023/12/04 06:45:11;;;;;;;9.37;8.37;;;;;;;20.46;37.27;97441.81;4939312;29;20238;-26
2023/12/04 06:47:38;;;;;;;9.67;8.13;;;;;;;20.44;36.58;97431.56;4948114;29;20208;-26
2023/12/04 06:50:05;;;;;;;9.30;8.40;;;;;;;20.44;36.13;97430.69;4928854;29;20245;-26
2023/12/04 06:52:31;;;;;;;9.50;8.50;;;;;;;20.43;36.05;97434.91;4945919;29;20714;-29
2023/12/04 06:54:58;;;;;;;9.27;8.37;;;;;;;20.44;35.50;97434.09;4946978;29;20204;-27
2023/12/04 06:57:24;;;;;;;10.63;9.63;;;;;;;20.42;33.12;97424.66;4944564;29;20208;-26
2023/12/04 06:59:51;;;;;;;10.53;9.43;;;;;;;20.41;33.36;97431.47;4955863;29;20227;-30
2023/12/04 07:02:18;;;;;;;10.53;9.40;;;;;;;20.39;34.44;97430.53;4953523;29;20324;-28
2023/12/04 07:04:44;;;;;;;9.17;8.23;;;;;;;20.41;35.02;97428.03;4953898;29;20220;-27
2023/12/04 07:07:12;;;;;;;9.47;8.47;;;;;;;20.42;35.72;97422.09;4953374;29;20231;-27
2023/12/04 07:09:39;;;;;;;9.27;8.47;;;;;;;20.41;36.34;97421.25;4951270;29;20243;-26
2023/12/04 07:12:06;;;;;;;9.00;8.10;;;;;;;20.40;35.39;97404.19;4948254;29;20315;-26
2023/12/04 07:14:33;;;;;;;10.53;9.53;;;;;;;20.38;32.01;97402.41;4947087;29;20731;-31
2023/12/04 07:17:00;;;;;;;10.40;9.23;;;;;;;20.38;32.74;97402.41;4947426;29;20209;-29
2023/12/04 07:19:27;;;;;;;10.27;9.17;;;;;;;20.37;33.50;97396.41;4943796;28;20256;-34
2023/12/04 07:21:53;;;;;;;9.00;7.93;;;;;;;20.16;34.26;97364.28;4942501;28;20236;-28
2023/12/04 07:24:20;;;;;;;9.50;8.50;;;;;;;20.38;34.88;97400.72;4947925;28;20266;-30
2023/12/04 07:26:47;;;;;;;9.40;7.70;;;;;;;20.38;35.41;97389.66;4951629;28;20258;-31
2023/12/04 07:29:13;;;;;;;8.77;7.93;;;;;;;20.38;36.15;97394.75;4953601;28;20236;-27
2023/12/04 07:31:41;;;;;;;9.50;7.80;;;;;;;20.37;36.40;97391.31;4952749;28;20231;-31
2023/12/04 07:34:07;;;;;;;8.60;7.63;;;;;;;20.38;36.95;97387.97;4951880;28;20658;-28
2023/12/04 07:36:34;;;;;;;8.77;7.87;;;;;;;20.40;37.16;97385.47;4946017;28;20212;-31
2023/12/04 07:39:01;;;;;;;8.87;7.97;;;;;;;20.39;37.74;97384.59;4948734;29;20692;-26
2023/12/04 07:41:27;;;;;;;8.60;7.73;;;;;;;20.40;37.97;97380.34;4942097;28;20295;-29
2023/12/04 07:43:54;;;;;;;11.33;7.90;;;;;;;20.41;38.25;97382.97;4941596;28;20261;-28
2023/12/04 07:46:21;;;;;;;7.77;6.97;;;;;;;20.42;38.55;97376.16;4943105;28;20214;-26
2023/12/04 07:48:47;;;;;;;7.57;6.77;;;;;;;20.42;38.82;97368.50;4949000;28;20212;-37
2023/12/04 07:51:14;;;;;;;9.10;7.27;;;;;;;20.43;39.13;97365.13;4948675;28;20223;-28
2023/12/04 07:53:41;;;;;;;8.43;7.37;;;;;;;20.42;39.46;97361.72;4945527;28;20216;-26
2023/12/04 07:56:08;;;;;;;9.77;6.57;;;;;;;20.44;39.57;97360.09;4941025;28;20240;-36
2023/12/04 07:58:35;;;;;;;7.93;6.97;;;;;;;20.45;40.09;97364.34;4952178;28;20574;-28
2023/12/04 08:01:01;;;;;;;7.20;6.47;;;;;;;20.46;39.84;97362.69;4945950;28;20263;-26
2023/12/04 08:03:28;;;;;;;6.93;6.23;;;;;;;20.46;39.93;97355.03;4952540;28;20343;-26
2023/12/04 08:05:55;;;;;;;7.77;6.43;;;;;;;20.47;40.02;97357.63;4941050;28;20216;-29
2023/12/04 08:08:22;;;;;;;10.23;7.00;;;;;;;20.47;40.41;97357.63;4941395;28;20204;-27
2023/12/04 08:10:49;;;;;;;7.97;6.40;;;;;;;20.47;40.35;97366.97;4950599;28;20243;-37
2023/12/04 08:13:16;;;;;;;7.00;6.07;;;;;;;20.48;40.51;97371.22;4946067;28;20236;-28
2023/12/04 08:15:44;;;;;;;7.43;6.37;;;;;;;20.48;40.70;97377.22;4950419;28;20623;-26
2023/12/04 08:18:10;;;;;;;7.70;6.30;;;;;;;20.48;40.84;97377.22;4946784;29;20212;-31
2023/12/04 08:20:37;;;;;;;9.23;6.27;;;;;;;20.48;41.16;97379.78;4949501;28;20596;-29
2023/12/04 08:23:07;;;;;;;7.10;5.80;;;;;;;20.49;41.33;97378.94;4947772;28;20228;-26
2023/12/04 08:25:34;;;;;;;7.03;6.13;;;;;;;20.48;41.29;97373.78;4946032;28;20212;-28
2023/12/04 08:28:01;;;;;;;6.47;5.70;;;;;;;20.48;41.45;97369.56;4942316;28;20645;-31
2023/12/04 08:30:27;;;;;;;6.87;5.90;;;;;;;20.48;41.46;97367.00;4949042;28;20668;-30
2023/12/04 08:32:54;;;;;;;7.30;6.03;;;;;;;20.49;41.69;97367.88;4948924;28;20231;-29
2023/12/04 08:35:21;;;;;;;7.40;5.90;;;;;;;20.49;41.71;97363.63;4945853;28;20205;-29
2023/12/04 08:37:48;;;;;;;11.93;6.53;;;;;;;20.50;41.95;97372.16;4942837;28;20208;-28
2023/12/04 08:40:15;;;;;;;8.17;5.73;;;;;;;20.49;42.03;97368.72;4943299;28;20545;-26
2023/12/04 08:42:43;;;;;;;8.67;5.87;;;;;;;20.50;42.06;97364.50;4944149;28;20233;-28
2023/12/04 08:45:10;;;;;;;7.37;5.13;;;;;;;20.50;42.14;97356.84;4941608;28;20229;-27
2023/12/04 08:47:36;;;;;;;7.63;5.67;;;;;;;20.51;42.27;97361.13;4952474;28;20302;-28
2023/12/04 08:50:04;;;;;;;7.17;5.90;;;;;;;20.50;42.22;97356.84;4945042;28;20204;-26
2023/12/04 08:52:31;;;;;;;8.70;5.57;;;;;;;20.50;42.41;97357.72;4944458;28;20655;-28
2023/12/04 08:54:57;;;;;;;7.57;5.57;;;;;;;20.51;42.45;97354.34;4945548;28;20716;-31
2023/12/04 08:57:24;;;;;;;8.97;5.33;;;;;;;20.52;42.46;97356.06;4948364;28;20754;-28
2023/12/04 08:59:51;;;;;;;8.67;5.60;;;;;;;20.52;42.78;97350.94;4943785;28;20212;-32
2023/12/04 09:02:17;;;;;;;7.00;5.63;;;;;;;20.44;42.55;97336.22;4938820;28;20661;-26
2023/12/04 09:04:44;;;;;;;8.47;5.93;;;;;;;20.52;42.75;97345.84;4949894;28;20227;-27
2023/12/04 09:07:11;;;;;;;7.63;5.60;;;;;;;20.53;42.38;97352.72;4944076;28;20221;-28
2023/12/04 09:09:59;;;;;;;7.83;5.70;;;;;;;20.52;42.84;97345.84;4948489;28;20460;-26
2023/12/04 09:12:30;;;;;;;7.50;5.23;;;;;;;20.53;42.73;97349.28;4944917;29;20233;-26
2023/12/04 09:14:57;;;;;;;9.37;8.30;;;;;;;20.49;34.69;97348.31;4939131;28;20695;-28
2023/12/04 09:17:23;;;;;;;10.03;8.77;;;;;;;20.47;35.01;97347.41;4944272;28;20930;-28
2023/12/04 09:19:55;;;;;;;9.03;8.13;;;;;;;20.47;36.04;97339.75;4951781;29;20228;-32
2023/12/04 09:22:22;;;;;;;9.27;8.37;;;;;;;20.48;37.01;97343.16;4944879;29;20230;-29
2023/12/04 09:24:49;;;;;;;8.10;7.30;;;;;;;20.46;36.95;97338.00;4939336;29;20661;-26
2023/12/04 09:27:16;;;;;;;9.63;8.00;;;;;;;20.47;37.85;97343.97;4950558;29;20204;-30
2023/12/04 09:29:43;;;;;;;8.40;7.50;;;;;;;20.46;38.03;97337.16;4951110;29;20259;-29
2023/12/04 09:32:10;;;;;;;8.27;7.37;;;;;;;20.47;38.30;97331.22;4944892;29;20645;-30
2023/12/04 09:34:37;;;;;;;8.53;7.13;;;;;;;20.47;38.98;97329.53;4928100;29;20659;-27
2023/12/04 09:37:04;;;;;;;8.03;7.07;;;;;;;20.47;39.17;97324.44;4940056;29;20256;-32
2023/12/04 09:39:37;;;;;;;9.50;7.80;;;;;;;20.49;39.39;97316.81;4943436;29;20201;-32
2023/12/04 09:42:03;;;;;;;10.40;7.17;;;;;;;20.48;39.83;97315.94;4930743;29;20307;-26
2023/12/04 09:44:30;;;;;;;8.60;6.87;;;;;;;20.49;40.35;97311.72;4943353;29;20225;-28
2023/12/04 09:46:57;;;;;;;7.93;6.97;;;;;;;20.49;40.32;97312.56;4927806;29;20201;-27
2023/12/04 09:49:24;;;;;;;7.60;6.53;;;;;;;20.47;40.62;97300.59;4932609;29;20263;-38
2023/12/04 09:51:50;;;;;;;9.20;6.47;;;;;;;20.49;40.86;97304.91;4925442;29;20303;-37
2023/12/04 09:54:19;;;;;;;9.90;6.40;;;;;;;20.39;40.88;97279.94;4928030;29;20646;-26
2023/12/04 09:56:46;;;;;;;7.60;6.37;;;;;;;20.50;41.01;97301.56;4940116;29;20586;-26
2023/12/04 09:59:13;;;;;;;7.50;6.70;;;;;;;20.50;41.05;97300.69;4942581;29;20211;-28
2023/12/04 10:01:40;;;;;;;7.63;6.33;;;;;;;20.50;41.19;97296.44;4940423;28;20224;-26
2023/12/04 10:04:06;;;;;;;7.33;5.87;;;;;;;20.48;41.33;97292.09;4944516;29;20687;-27
2023/12/04 10:06:33;;;;;;;7.60;6.13;;;;;;;20.51;41.37;97289.63;4915049;29;20255;-26
2023/12/04 10:09:00;;;;;;;7.70;6.10;;;;;;;20.51;41.59;97295.63;4939696;29;20197;-32
2023/12/04 10:11:26;;;;;;;8.60;6.17;;;;;;;20.48;41.92;97282.75;4945014;29;20724;-33
2023/12/04 10:13:54;;;;;;;7.90;5.87;;;;;;;20.51;41.61;97287.09;4944306;29;20223;-26
2023/12/04 10:16:35;;;;;;;8.73;5.90;;;;;;;20.51;41.71;97284.53;4942698;29;20236;-29
2023/12/04 10:19:22;;;;;;;8.20;6.33;;;;;;;20.52;41.69;97282.03;4935770;29;20212;-28
2023/12/04 10:21:50;;;;;;;5.93;5.30;;;;;;;20.52;41.85;97283.72;4936934;29;20239;-27
2023/12/04 10:24:33;;;;;;;7.13;5.80;;;;;;;20.53;41.79;97270.13;4942567;29;20315;-34
2023/12/04 10:27:00;;;;;;;7.77;5.67;;;;;;;20.52;41.90;97255.66;4944248;29;20580;-27
2023/12/04 10:29:29;;;;;;;6.70;5.83;;;;;;;20.52;42.05;97251.38;4943070;28;20205;-30
2023/12/04 10:31:58;;;;;;;6.23;5.30;;;;;;;20.53;41.83;97247.16;4943060;29;20221;-28
2023/12/04 10:34:26;;;;;;;6.87;5.27;;;;;;;20.53;41.98;97239.50;4929131;29;20228;-28
2023/12/04 10:36:53;;;;;;;6.30;5.13;;;;;;;20.53;41.98;97229.28;4940877;29;20457;-35
2023/12/04 10:39:20;;;;;;;6.63;4.93;;;;;;;20.52;41.97;97223.31;4949684;29;20625;-27
2023/12/04 10:41:58;;;;;;;5.57;5.07;;;;;;;20.55;42.16;97232.75;4925027;29;20220;-26
2023/12/04 10:44:24;;;;;;;6.97;5.57;;;;;;;20.55;42.36;97214.91;4941356;29;20295;-26
2023/12/04 10:46:52;;;;;;;6.27;5.03;;;;;;;20.55;42.33;97207.22;4947299;29;20240;-27
2023/12/04 10:49:18;;;;;;;6.23;5.17;;;;;;;20.54;42.36;97205.50;4923189;29;20699;-27
2023/12/04 10:51:46;;;;;;;6.40;4.90;;;;;;;20.51;42.27;97185.84;4937164;29;20224;-33
2023/12/04 10:54:12;;;;;;;5.37;4.63;;;;;;;20.57;42.29;97190.28;4918229;29;20260;-27
2023/12/04 10:56:39;;;;;;;6.03;4.87;;;;;;;20.60;42.30;97193.75;4945315;29;20624;-28
2023/12/04 10:59:10;;;;;;;5.33;4.40;;;;;;;20.60;42.30;97181.00;4927525;29;20212;-39
2023/12/04 11:01:38;;;;;;;6.33;4.43;;;;;;;20.60;42.47;97180.16;4945253;29;20232;-28
2023/12/04 11:04:06;;;;;;;4.73;4.33;;;;;;;20.55;42.43;97187.69;4937930;29;20645;-30
2023/12/04 11:06:35;;;;;;;6.77;4.53;;;;;;;20.58;42.42;97184.34;4936403;29;20200;-29
2023/12/04 11:09:01;;;;;;;5.70;4.43;;;;;;;20.60;42.43;97187.81;4939300;29;20236;-28
2023/12/04 11:11:31;;;;;;;4.70;4.30;;;;;;;20.57;42.38;97175.81;4941249;29;20212;-27
2023/12/04 11:14:01;;;;;;;5.17;4.67;;;;;;;20.61;42.64;97164.88;4916710;29;20203;-27
2023/12/04 11:16:47;;;;;;;10.60;4.87;;;;;;;20.64;42.82;97174.31;4934141;29;20205;-31
2023/12/04 11:19:31;;;;;;;7.53;4.70;;;;;;;20.66;42.73;97167.56;4949694;28;20611;-28
2023/12/04 11:21:58;;;;;;;9.73;4.87;;;;;;;20.66;42.62;97162.44;4930015;29;20609;-35
2023/12/04 11:24:25;;;;;;;6.37;4.57;;;;;;;20.66;42.80;97168.41;4946381;28;20740;-28
2023/12/04 11:26:52;;;;;;;7.07;4.20;;;;;;;20.69;42.89;97165.94;4947688;28;20208;-26
2023/12/04 11:29:19;;;;;;;8.33;4.50;;;;;;;20.68;42.82;97150.56;4931992;28;20664;-33
2023/12/04 11:31:46;;;;;;;7.53;4.57;;;;;;;20.72;42.96;97160.06;4918144;29;20224;-27
2023/12/04 11:34:12;;;;;;;6.77;4.30;;;;;;;20.73;42.89;97151.56;4948153;28;20205;-33
2023/12/04 11:36:39;;;;;;;7.23;4.07;;;;;;;20.73;42.91;97147.34;4944705;28;20204;-32
2023/12/04 11:39:09;;;;;;;4.60;4.13;;;;;;;20.73;42.84;97142.22;4943814;28;20227;-26
2023/12/04 11:41:36;;;;;;;5.00;3.97;;;;;;;20.75;42.89;97132.06;4952364;28;20239;-28
2023/12/04 11:44:03;;;;;;;8.30;4.07;;;;;;;20.76;42.75;97136.31;4950829;28;20271;-30